Time;durP1;ratioP1;P1;durP2;ratioP2;P2;SDS_P1;SDS_P2;PMS_P1;PMS_P2;Temp;Humidity;BMP_temperature;BMP_pressure;BME280_temperature;BME280_humidity;BME280_pressure;Samples;Min_cycle;Max_cycle;Signal;HPM_P1;HPM_P2
2023/03/16 00:03:05;;;;;;;6.30;2.65;;;4.40;68.30;;;;;;9179105;19;20510;-65
2023/03/16 00:06:09;;;;;;;6.28;2.28;;;4.40;68.40;;;;;;9177760;19;20023;-64
2023/03/16 00:09:16;;;;;;;7.43;2.78;;;4.40;68.30;;;;;;9177268;19;20101;-65
2023/03/16 00:12:21;;;;;;;8.98;2.50;;;4.40;68.40;;;;;;9179417;19;20022;-65
2023/03/16 00:15:27;;;;;;;9.43;3.03;;;4.40;68.40;;;;;;9179822;19;20018;-64
2023/03/16 00:18:37;;;;;;;10.27;2.38;;;4.40;68.50;;;;;;9175701;19;20015;-65
2023/03/16 00:21:43;;;;;;;10.80;2.83;;;4.40;68.40;;;;;;9179300;19;20018;-64
2023/03/16 00:24:47;;;;;;;;;;;4.40;68.40;;;;;;9178760;19;20011;-65
2023/03/16 00:27:52;;;;;;;4.53;2.20;;;4.40;68.50;;;;;;9178027;19;19922;-65
2023/03/16 00:30:57;;;;;;;;;;;4.40;68.40;;;;;;9175912;19;20031;-65
2023/03/16 00:34:05;;;;;;;7.80;2.40;;;4.40;68.50;;;;;;9179167;19;19926;-65
2023/03/16 00:37:12;;;;;;;6.88;2.38;;;4.40;68.50;;;;;;9178547;19;20015;-65
2023/03/16 00:40:19;;;;;;;4.75;2.25;;;4.40;68.50;;;;;;9178961;19;20019;-65
2023/03/16 00:43:26;;;;;;;10.35;2.45;;;4.40;68.50;;;;;;9177436;19;20021;-64
2023/03/16 00:46:32;;;;;;;6.60;2.35;;;4.40;68.60;;;;;;9176046;19;20376;-65
2023/03/16 00:49:38;;;;;;;6.45;2.50;;;4.40;68.60;;;;;;9178284;19;20014;-64
2023/03/16 00:52:43;;;;;;;8.43;2.40;;;4.40;68.60;;;;;;9177874;19;20018;-65
2023/03/16 00:55:47;;;;;;;5.10;2.10;;;4.40;68.60;;;;;;9178322;19;20074;-64
2023/03/16 00:58:56;;;;;;;7.40;2.40;;;4.40;68.60;;;;;;9172573;19;20022;-65
2023/03/16 01:02:01;;;;;;;6.88;2.22;;;4.40;68.60;;;;;;9178026;19;20341;-65
2023/03/16 01:05:11;;;;;;;6.90;2.38;;;4.40;68.70;;;;;;9176890;19;20018;-64
2023/03/16 01:08:15;;;;;;;8.95;2.60;;;4.40;68.70;;;;;;9176231;19;20017;-65
2023/03/16 01:11:23;;;;;;;10.25;2.55;;;4.40;68.70;;;;;;9175870;19;20011;-65
2023/03/16 01:14:27;;;;;;;7.47;2.67;;;4.40;68.70;;;;;;9172876;19;20018;-64
2023/03/16 01:17:34;;;;;;;6.72;2.80;;;4.50;68.80;;;;;;9177271;19;20021;-64
2023/03/16 01:20:47;;;;;;;7.90;2.50;;;4.40;68.70;;;;;;9175491;19;20022;-65
2023/03/16 01:23:53;;;;;;;8.43;3.15;;;4.50;68.80;;;;;;9175484;19;20053;-65
2023/03/16 01:26:58;;;;;;;11.30;2.50;;;4.50;68.80;;;;;;9174005;19;20019;-65
2023/03/16 01:30:04;;;;;;;12.63;4.80;;;4.50;68.80;;;;;;9177009;19;20011;-64
2023/03/16 01:33:08;;;;;;;8.98;2.88;;;4.50;68.80;;;;;;9176586;19;20015;-64
2023/03/16 01:36:18;;;;;;;6.32;3.45;;;4.40;68.80;;;;;;9177023;19;20022;-65
2023/03/16 01:39:28;;;;;;;6.45;2.33;;;4.40;68.80;;;;;;9174929;19;20493;-64
2023/03/16 01:42:45;;;;;;;6.63;2.95;;;4.50;68.90;;;;;;9177756;19;20018;-64
2023/03/16 01:46:16;;;;;;;7.45;2.72;;;4.50;68.90;;;;;;9182043;19;20029;-65
2023/03/16 01:49:27;;;;;;;7.20;2.42;;;4.50;68.90;;;;;;9183007;19;20010;-64
2023/03/16 01:52:38;;;;;;;6.50;2.60;;;4.50;68.90;;;;;;9182505;19;20018;-64
2023/03/16 01:55:44;;;;;;;7.88;2.80;;;4.50;68.90;;;;;;9184165;19;20015;-65
2023/03/16 01:58:49;;;;;;;;;;;4.50;68.90;;;;;;9178773;19;20025;-65
2023/03/16 02:01:57;;;;;;;5.32;2.72;;;4.50;69.00;;;;;;9182409;19;19929;-65
2023/03/16 02:05:06;;;;;;;6.07;2.45;;;4.50;68.90;;;;;;9181776;19;20014;-65
2023/03/16 02:08:15;;;;;;;5.70;2.63;;;4.50;68.90;;;;;;9181356;19;20015;-64
2023/03/16 02:11:21;;;;;;;5.32;2.30;;;4.50;68.90;;;;;;9179259;19;20018;-64
2023/03/16 02:14:43;;;;;;;5.47;2.60;;;4.50;68.90;;;;;;9181571;19;20033;-65
2023/03/16 02:17:49;;;;;;;9.50;3.22;;;4.50;68.90;;;;;;9181708;19;20014;-64
2023/03/16 02:21:03;;;;;;;3.88;2.70;;;4.60;69.00;;;;;;9181746;19;20014;-65
2023/03/16 02:24:09;;;;;;;6.63;2.92;;;4.60;69.00;;;;;;9183398;19;20010;-64
2023/03/16 02:27:22;;;;;;;9.15;2.97;;;4.60;68.90;;;;;;9179114;19;20006;-65
2023/03/16 02:30:28;;;;;;;6.60;2.33;;;4.60;68.90;;;;;;9181728;19;20011;-65
2023/03/16 02:33:40;;;;;;;9.25;2.85;;;4.60;68.90;;;;;;9181133;19;20482;-64
2023/03/16 02:36:47;;;;;;;9.40;2.50;;;4.70;69.00;;;;;;9181528;19;20014;-64
2023/03/16 02:39:55;;;;;;;8.68;4.25;;;4.70;69.00;;;;;;9180688;19;20009;-64
2023/03/16 02:43:03;;;;;;;6.25;2.60;;;4.70;68.90;;;;;;9181007;19;20092;-64
2023/03/16 02:46:16;;;;;;;8.18;3.08;;;4.70;68.90;;;;;;9180062;19;20022;-64
2023/03/16 02:49:25;;;;;;;9.15;3.10;;;4.80;69.00;;;;;;9180173;19;20018;-64
2023/03/16 02:52:31;;;;;;;6.20;2.58;;;4.80;69.00;;;;;;9182332;19;20033;-64
2023/03/16 02:55:35;;;;;;;7.93;3.38;;;4.80;68.90;;;;;;9178515;19;20036;-64
2023/03/16 02:58:41;;;;;;;6.60;2.67;;;4.80;68.90;;;;;;9174797;19;20050;-64
2023/03/16 03:01:52;;;;;;;10.40;2.50;;;4.80;68.90;;;;;;9180240;19;20018;-64
2023/03/16 03:04:58;;;;;;;5.35;2.58;;;4.90;68.90;;;;;;9180475;19;20021;-64
2023/03/16 03:08:03;;;;;;;8.50;2.50;;;4.90;68.90;;;;;;9176771;19;20030;-63
2023/03/16 03:11:09;;;;;;;7.70;3.08;;;4.90;68.90;;;;;;9180609;19;20034;-64
2023/03/16 03:14:15;;;;;;;8.20;2.85;;;4.90;68.90;;;;;;9181386;19;20011;-64
2023/03/16 03:17:28;;;;;;;7.50;3.10;;;4.90;68.90;;;;;;9179975;19;20014;-64
2023/03/16 03:20:33;;;;;;;8.93;2.65;;;5.00;69.00;;;;;;9180003;19;20014;-64
2023/03/16 03:23:39;;;;;;;4.50;2.72;;;4.90;68.90;;;;;;9179504;19;20018;-64
2023/03/16 03:26:45;;;;;;;6.90;2.60;;;5.00;68.90;;;;;;9179631;19;20033;-64
2023/03/16 03:29:57;;;;;;;4.88;2.67;;;5.00;68.90;;;;;;9179769;19;20014;-64
2023/03/16 03:33:05;;;;;;;7.53;2.97;;;5.00;69.50;;;;;;9179527;19;20021;-64
2023/03/16 03:36:12;;;;;;;8.30;3.45;;;5.00;68.90;;;;;;9180318;19;20021;-64
2023/03/16 03:39:17;;;;;;;7.40;2.58;;;5.00;68.90;;;;;;9179016;19;20623;-64
2023/03/16 03:42:24;;;;;;;8.23;3.33;;;5.00;68.90;;;;;;9180157;19;20022;-64
2023/03/16 03:45:28;;;;;;;5.30;2.58;;;5.10;68.90;;;;;;9178511;19;20022;-64
2023/03/16 03:48:36;;;;;;;5.32;2.47;;;5.00;68.90;;;;;;9178899;19;20015;-64
2023/03/16 03:51:41;;;;;;;5.43;2.60;;;5.10;69.00;;;;;;9180059;19;20022;-64
2023/03/16 03:54:51;;;;;;;4.93;2.60;;;5.10;69.00;;;;;;9178568;19;20014;-65
2023/03/16 03:57:56;;;;;;;12.10;3.05;;;5.10;68.90;;;;;;9174142;19;20018;-64
2023/03/16 04:01:01;;;;;;;8.57;2.78;;;5.10;68.90;;;;;;9180013;19;20018;-64
2023/03/16 04:04:09;;;;;;;6.20;3.15;;;5.10;68.90;;;;;;9174419;19;20018;-64
2023/03/16 04:07:15;;;;;;;6.32;2.50;;;5.10;68.90;;;;;;9174777;19;20480;-64
2023/03/16 04:10:21;;;;;;;8.60;2.95;;;5.10;69.00;;;;;;9178578;19;20039;-64
2023/03/16 04:13:26;;;;;;;8.73;2.78;;;5.10;69.00;;;;;;9179076;19;20043;-64
2023/03/16 04:16:31;;;;;;;8.90;2.97;;;5.20;69.00;;;;;;9179269;19;20041;-64
2023/03/16 04:19:40;;;;;;;5.28;2.70;;;5.20;69.00;;;;;;9177619;19;20257;-64
2023/03/16 04:22:49;;;;;;;7.65;3.35;;;5.20;69.00;;;;;;9177677;19;20015;-64
2023/03/16 04:25:55;;;;;;;4.32;2.20;;;5.20;69.00;;;;;;9176968;19;20022;-64
2023/03/16 04:29:01;;;;;;;7.55;2.80;;;5.20;69.00;;;;;;9178517;19;20475;-64
2023/03/16 04:32:08;;;;;;;7.47;2.70;;;5.20;69.00;;;;;;9177240;19;20014;-65
2023/03/16 04:35:15;;;;;;;6.70;2.88;;;5.20;69.00;;;;;;9177142;19;20014;-64
2023/03/16 04:38:27;;;;;;;;;;;5.20;69.00;;;;;;9179016;19;20021;-64
2023/03/16 04:41:34;;;;;;;11.40;3.25;;;5.20;69.00;;;;;;9177009;19;20457;-64
2023/03/16 04:44:48;;;;;;;4.47;2.80;;;5.30;69.00;;;;;;9176326;19;20022;-64
2023/03/16 04:47:52;;;;;;;7.03;2.53;;;5.30;69.00;;;;;;9175569;19;20026;-64
2023/03/16 04:51:02;;;;;;;2.90;2.47;;;5.20;69.00;;;;;;9176773;19;20357;-64
2023/03/16 04:54:09;;;;;;;4.85;2.55;;;5.20;69.00;;;;;;9176928;19;20033;-65
2023/03/16 04:57:18;;;;;;;5.00;2.72;;;5.20;69.00;;;;;;9171289;19;20033;-64
2023/03/16 05:00:35;;;;;;;5.15;2.72;;;5.20;69.10;;;;;;9172100;19;20019;-64
2023/03/16 05:03:46;;;;;;;6.88;2.47;;;5.20;69.00;;;;;;9176451;19;20030;-64
2023/03/16 05:06:53;;;;;;;5.45;2.88;;;5.30;69.10;;;;;;9173773;19;20014;-64
2023/03/16 05:10:03;;;;;;;8.40;2.50;;;5.30;69.10;;;;;;9172164;19;20021;-64
2023/03/16 05:13:08;;;;;;;8.60;3.35;;;5.30;69.10;;;;;;9177447;19;20015;-64
2023/03/16 05:16:15;;;;;;;7.35;3.08;;;5.30;69.10;;;;;;9176197;19;20029;-64
2023/03/16 05:19:19;;;;;;;7.97;2.92;;;5.30;69.10;;;;;;9174261;19;20015;-65
2023/03/16 05:22:27;;;;;;;6.93;3.42;;;5.30;69.10;;;;;;9177221;19;20018;-64
2023/03/16 05:26:07;;;;;;;7.00;2.28;;;5.30;69.00;;;;;;9175535;19;20487;-64
2023/03/16 05:29:16;;;;;;;6.68;2.58;;;5.30;69.10;;;;;;9174830;19;20021;-64
2023/03/16 05:32:21;;;;;;;5.10;2.42;;;5.30;69.10;;;;;;9175277;19;20017;-64
2023/03/16 05:35:27;;;;;;;4.68;2.42;;;5.30;69.10;;;;;;9176368;19;20372;-64
2023/03/16 05:38:38;;;;;;;6.25;2.88;;;5.30;69.10;;;;;;9176386;19;20101;-63
2023/03/16 05:41:46;;;;;;;6.55;2.88;;;5.30;69.10;;;;;;9174651;19;20021;-64
2023/03/16 05:45:03;;;;;;;5.05;2.65;;;5.30;69.10;;;;;;9175038;19;20078;-64
2023/03/16 05:48:20;;;;;;;8.15;2.60;;;5.30;69.10;;;;;;9172672;19;20010;-63
2023/03/16 05:51:28;;;;;;;5.10;2.38;;;5.30;69.10;;;;;;9176064;19;20496;-64
2023/03/16 05:54:37;;;;;;;7.80;2.72;;;5.30;69.10;;;;;;9172732;19;20011;-64
2023/03/16 05:57:41;;;;;;;7.03;2.70;;;5.30;69.10;;;;;;9168869;19;20022;-64
2023/03/16 06:00:49;;;;;;;8.85;2.90;;;5.20;69.10;;;;;;9175394;19;20352;-64
2023/03/16 06:04:04;;;;;;;5.47;2.53;;;5.20;69.10;;;;;;9173163;19;20015;-64
2023/03/16 06:07:13;;;;;;;4.28;2.78;;;5.20;69.10;;;;;;9171217;19;20480;-65
2023/03/16 06:10:20;;;;;;;5.82;2.55;;;5.30;69.10;;;;;;9173609;19;20018;-65
2023/03/16 06:13:26;;;;;;;6.90;2.80;;;5.30;69.20;;;;;;9173064;19;20014;-65
2023/03/16 06:16:30;;;;;;;6.82;2.40;;;5.20;69.10;;;;;;9172898;19;20015;-64
2023/03/16 06:19:37;;;;;;;7.03;2.60;;;5.20;69.20;;;;;;9173507;19;20483;-65
2023/03/16 06:22:42;;;;;;;5.95;2.40;;;5.20;69.20;;;;;;9173386;19;20022;-64
2023/03/16 06:25:53;;;;;;;7.57;2.72;;;5.20;69.20;;;;;;9172584;19;20010;-65
2023/03/16 06:28:58;;;;;;;4.40;2.65;;;5.20;69.20;;;;;;9172819;19;20014;-64
2023/03/16 06:32:05;;;;;;;7.20;3.15;;;5.30;69.20;;;;;;9181235;19;20502;-64
2023/03/16 06:35:11;;;;;;;6.15;2.70;;;5.30;69.30;;;;;;9181754;19;20023;-65
2023/03/16 06:38:22;;;;;;;5.55;2.45;;;5.30;69.20;;;;;;9182607;19;20026;-64
2023/03/16 06:41:41;;;;;;;5.40;2.65;;;5.30;69.20;;;;;;9181156;19;20014;-64
2023/03/16 06:44:48;;;;;;;6.90;2.45;;;5.30;69.30;;;;;;9180887;19;20021;-64
2023/03/16 06:47:52;;;;;;;7.78;2.40;;;5.30;69.30;;;;;;9178828;19;20010;-65
2023/03/16 06:50:58;;;;;;;8.85;2.42;;;5.30;69.30;;;;;;9178568;19;20018;-65
2023/03/16 06:54:04;;;;;;;9.07;2.50;;;5.40;69.40;;;;;;9180785;19;20011;-65
2023/03/16 06:57:17;;;;;;;6.03;2.30;;;5.40;69.40;;;;;;9174996;19;20087;-65
2023/03/16 07:00:21;;;;;;;6.25;2.83;;;5.40;69.30;;;;;;9180996;19;20022;-65
2023/03/16 07:03:29;;;;;;;5.35;2.70;;;5.40;69.40;;;;;;9178989;19;20026;-64
2023/03/16 07:06:38;;;;;;;9.43;2.40;;;5.50;69.40;;;;;;9178631;19;20037;-65
2023/03/16 07:09:44;;;;;;;5.80;2.45;;;5.50;69.50;;;;;;9177445;19;20015;-65
2023/03/16 07:12:51;;;;;;;5.82;2.80;;;5.50;69.40;;;;;;9179485;19;20110;-64
2023/03/16 07:15:57;;;;;;;8.75;2.90;;;5.60;69.40;;;;;;9181026;19;20395;-65
2023/03/16 07:19:02;;;;;;;6.13;2.85;;;5.60;69.40;;;;;;9179422;19;20015;-62
2023/03/16 07:22:10;;;;;;;4.95;2.78;;;5.60;69.40;;;;;;9180261;19;20029;-61
2023/03/16 07:25:16;;;;;;;4.40;2.50;;;5.60;69.30;;;;;;9179795;19;20014;-61
2023/03/16 07:28:31;;;;;;;6.15;3.03;;;5.70;69.40;;;;;;9176119;19;20015;-61
2023/03/16 07:31:37;;;;;;;5.15;2.65;;;5.70;69.40;;;;;;9179474;19;20015;-61
2023/03/16 07:34:48;;;;;;;7.68;2.97;;;5.80;69.40;;;;;;9179244;19;20017;-62
2023/03/16 07:37:53;;;;;;;10.63;2.80;;;5.80;69.40;;;;;;9180185;19;20025;-61
2023/03/16 07:41:00;;;;;;;5.93;2.90;;;5.90;69.50;;;;;;9177350;19;20014;-61
2023/03/16 07:44:07;;;;;;;3.47;2.47;;;5.90;69.50;;;;;;9178497;19;20017;-60
2023/03/16 07:47:14;;;;;;;4.65;2.88;;;5.90;69.40;;;;;;9177923;19;20014;-61
2023/03/16 07:50:19;;;;;;;5.75;3.20;;;6.00;69.50;;;;;;9178342;19;20010;-60
2023/03/16 07:53:28;;;;;;;4.18;2.65;;;6.00;69.50;;;;;;9175306;19;20021;-60
2023/03/16 07:56:49;;;;;;;7.88;2.63;;;6.10;69.50;;;;;;9169063;19;20446;-61
2023/03/16 08:00:22;;;;;;;6.63;3.10;;;6.10;69.40;;;;;;9170171;19;20037;-61
2023/03/16 08:03:27;;;;;;;4.55;3.45;;;6.20;69.50;;;;;;9170067;19;20021;-61
2023/03/16 08:06:34;;;;;;;5.43;3.00;;;6.20;69.40;;;;;;9171160;19;20018;-61
2023/03/16 08:09:40;;;;;;;9.18;3.17;;;6.30;69.60;;;;;;9167006;19;20354;-61
2023/03/16 08:12:48;;;;;;;5.20;3.15;;;6.40;69.50;;;;;;9178274;19;20018;-60
2023/03/16 08:15:57;;;;;;;6.50;3.33;;;6.50;69.50;;;;;;9177582;19;20050;-61
2023/03/16 08:19:11;;;;;;;7.13;3.35;;;6.50;69.50;;;;;;9176896;19;20015;-61
2023/03/16 08:22:16;;;;;;;8.40;4.03;;;6.60;69.50;;;;;;9177645;19;20505;-61
2023/03/16 08:25:25;;;;;;;4.68;3.03;;;6.70;69.60;;;;;;9176534;19;20014;-61
2023/03/16 08:28:41;;;;;;;4.50;2.90;;;6.70;69.50;;;;;;9173387;19;20022;-61
2023/03/16 08:31:55;;;;;;;7.65;3.00;;;6.80;69.60;;;;;;9177057;19;20010;-62
2023/03/16 08:35:05;;;;;;;6.45;3.45;;;6.80;69.50;;;;;;9176573;19;20051;-61
2023/03/16 08:38:14;;;;;;;9.00;3.20;;;6.90;69.50;;;;;;9166489;19;20014;-61
2023/03/16 08:41:20;;;;;;;6.38;3.40;;;6.90;69.50;;;;;;9169402;19;20019;-61
2023/03/16 08:44:27;;;;;;;9.00;3.45;;;7.00;69.50;;;;;;9168074;19;20680;-61
2023/03/16 08:47:34;;;;;;;9.40;3.78;;;7.00;69.50;;;;;;9168231;19;20022;-62
2023/03/16 08:50:42;;;;;;;6.45;3.53;;;7.10;69.50;;;;;;9169253;19;20022;-62
2023/03/16 08:53:46;;;;;;;8.77;3.97;;;7.10;69.50;;;;;;9169386;19;20014;-62
2023/03/16 08:56:52;;;;;;;7.18;3.83;;;7.20;69.50;;;;;;9170960;19;20025;-62
2023/03/16 08:59:57;;;;;;;5.97;3.45;;;7.20;69.50;;;;;;9163379;19;20043;-62
2023/03/16 09:03:05;;;;;;;6.68;3.85;;;7.30;69.50;;;;;;9168553;19;20448;-62
2023/03/16 09:06:11;;;;;;;10.57;3.63;;;7.30;69.50;;;;;;9168922;19;20033;-62
2023/03/16 09:09:17;;;;;;;8.15;4.13;;;7.40;69.50;;;;;;9168345;19;20014;-62
2023/03/16 09:12:22;;;;;;;;;;;7.40;69.50;;;;;;9170252;19;20031;-62
2023/03/16 09:15:28;;;;;;;8.07;3.58;;;7.50;69.60;;;;;;9169912;19;19930;-62
2023/03/16 09:18:35;;;;;;;6.25;3.20;;;7.50;69.50;;;;;;9169552;19;20018;-62
2023/03/16 09:21:41;;;;;;;6.97;3.58;;;7.50;69.50;;;;;;9169449;19;20021;-62
2023/03/16 09:24:45;;;;;;;6.03;3.97;;;7.50;69.50;;;;;;9169052;19;20565;-62
2023/03/16 09:27:51;;;;;;;9.05;4.05;;;7.60;69.60;;;;;;9167942;19;20488;-60
2023/03/16 09:30:55;;;;;;;;;;;7.60;69.60;;;;;;9169089;19;20019;-60
2023/03/16 09:34:03;;;;;;;7.35;3.63;;;7.60;69.70;;;;;;9168242;19;19929;-60
2023/03/16 09:37:08;;;;;;;10.88;4.35;;;7.60;69.60;;;;;;9165742;19;20902;-60
2023/03/16 09:40:23;;;;;;;8.85;3.90;;;7.60;69.70;;;;;;9167518;19;20015;-61
2023/03/16 09:43:50;;;;;;;10.97;3.63;;;7.60;69.80;;;;;;9169304;19;20436;-61
2023/03/16 09:46:59;;;;;;;10.25;3.78;;;7.60;69.90;;;;;;9167444;19;20013;-61
2023/03/16 09:50:08;;;;;;;6.13;3.60;;;7.60;69.90;;;;;;9165962;19;20018;-62
2023/03/16 09:53:23;;;;;;;6.50;3.03;;;7.60;70.00;;;;;;9168339;19;20356;-61
2023/03/16 09:56:33;;;;;;;9.82;3.50;;;7.60;70.10;;;;;;9168713;19;20019;-62
2023/03/16 09:59:39;;;;;;;8.38;3.50;;;7.60;70.10;;;;;;9163308;19;20022;-61
2023/03/16 10:03:02;;;;;;;10.77;3.50;;;7.60;70.20;;;;;;9168783;19;20018;-61
2023/03/16 10:06:15;;;;;;;10.30;3.40;;;7.60;70.30;;;;;;9170580;19;20357;-61
2023/03/16 10:09:31;;;;;;;10.65;3.40;;;7.60;70.30;;;;;;9166342;19;20019;-62
2023/03/16 10:12:45;;;;;;;8.60;3.88;;;7.60;70.40;;;;;;9172521;19;20491;-61
2023/03/16 10:15:51;;;;;;;10.90;3.70;;;7.70;70.60;;;;;;9175387;19;20460;-61
2023/03/16 10:19:02;;;;;;;11.38;3.33;;;7.70;70.60;;;;;;9175984;19;20011;-61
2023/03/16 10:22:21;;;;;;;6.60;3.30;;;7.70;70.70;;;;;;9174998;19;20063;-61
2023/03/16 10:25:36;;;;;;;5.78;3.28;;;7.70;70.80;;;;;;9175385;19;20019;-61
2023/03/16 10:28:41;;;;;;;8.90;3.38;;;7.80;70.80;;;;;;9173640;19;20018;-62
2023/03/16 10:31:47;;;;;;;7.55;3.47;;;7.80;70.90;;;;;;9176331;19;20010;-61
2023/03/16 10:34:58;;;;;;;6.20;3.08;;;7.90;71.00;;;;;;9175735;19;20018;-61
2023/03/16 10:38:04;;;;;;;5.93;3.15;;;7.90;71.00;;;;;;9171023;19;20023;-62
2023/03/16 10:41:22;;;;;;;7.40;3.75;;;7.90;71.00;;;;;;9173220;19;20018;-62
2023/03/16 10:44:30;;;;;;;6.78;3.40;;;8.00;71.10;;;;;;9172357;19;20018;-62
2023/03/16 10:47:36;;;;;;;7.80;2.97;;;8.00;71.00;;;;;;9170718;19;20014;-62
2023/03/16 10:50:40;;;;;;;;;;;8.10;71.10;;;;;;9176226;19;20018;-63
2023/03/16 10:53:49;;;;;;;5.40;3.20;;;8.10;71.10;;;;;;9173205;19;19948;-62
2023/03/16 10:56:54;;;;;;;7.05;2.80;;;8.20;71.00;;;;;;9172349;19;20023;-62
2023/03/16 11:00:14;;;;;;;6.53;2.95;;;8.20;71.10;;;;;;9168499;19;20022;-61
2023/03/16 11:03:26;;;;;;;5.82;2.92;;;8.20;71.10;;;;;;9174270;19;20035;-62
2023/03/16 11:06:33;;;;;;;5.57;2.60;;;8.30;71.10;;;;;;9174054;19;20014;-61
2023/03/16 11:09:40;;;;;;;4.88;2.67;;;8.30;71.00;;;;;;9171929;19;20631;-62
2023/03/16 11:12:49;;;;;;;5.25;2.60;;;8.40;71.10;;;;;;9173942;19;20015;-61
2023/03/16 11:16:00;;;;;;;8.60;2.85;;;8.50;71.10;;;;;;9169898;19;20050;-62
2023/03/16 11:19:19;;;;;;;6.00;2.75;;;8.50;71.10;;;;;;9172779;19;20010;-62
2023/03/16 11:22:25;;;;;;;11.55;3.45;;;8.50;71.00;;;;;;9171865;19;20018;-62
2023/03/16 11:25:40;;;;;;;7.68;2.67;;;8.60;71.00;;;;;;9169805;19;20011;-63
2023/03/16 11:28:53;;;;;;;11.48;3.35;;;8.60;70.90;;;;;;9169933;19;20026;-64
2023/03/16 11:32:06;;;;;;;6.45;2.75;;;8.70;70.90;;;;;;9171886;19;20523;-62
2023/03/16 11:35:15;;;;;;;8.75;3.30;;;8.70;70.90;;;;;;9172489;19;20019;-62
2023/03/16 11:38:28;;;;;;;6.07;2.55;;;8.70;70.90;;;;;;9172097;19;20380;-63
2023/03/16 11:41:45;;;;;;;9.73;3.08;;;8.70;70.90;;;;;;9172850;19;20014;-62
2023/03/16 11:44:58;;;;;;;5.88;2.72;;;8.80;70.80;;;;;;9172901;19;20014;-62
2023/03/16 11:48:18;;;;;;;5.53;2.50;;;8.80;70.80;;;;;;9171183;19;20018;-62
2023/03/16 11:51:42;;;;;;;7.07;2.90;;;8.90;70.80;;;;;;9172598;19;20025;-62
2023/03/16 11:54:57;;;;;;;6.20;2.80;;;8.90;70.80;;;;;;9173126;19;20029;-62
2023/03/16 11:58:24;;;;;;;6.22;2.70;;;9.00;70.90;;;;;;9167506;19;20006;-62
2023/03/16 12:01:39;;;;;;;4.20;2.65;;;9.00;70.80;;;;;;9172303;19;20492;-62
2023/03/16 12:05:11;;;;;;;7.45;3.03;;;9.10;70.80;;;;;;9171204;19;20905;-62
2023/03/16 12:08:38;;;;;;;3.97;2.72;;;9.10;70.80;;;;;;9168254;19;20049;-62
2023/03/16 12:11:50;;;;;;;4.78;2.53;;;9.20;70.80;;;;;;9173690;19;20029;-62
2023/03/16 12:15:11;;;;;;;4.80;2.75;;;9.30;70.80;;;;;;9176237;19;20022;-62
2023/03/16 12:18:20;;;;;;;5.28;2.53;;;9.40;70.70;;;;;;9178388;19;20019;-62
2023/03/16 12:21:31;;;;;;;7.60;2.38;;;9.50;70.70;;;;;;9179031;19;20512;-62
2023/03/16 12:24:43;;;;;;;5.80;2.13;;;9.60;70.70;;;;;;9179256;19;20022;-62
2023/03/16 12:27:49;;;;;;;7.32;2.40;;;9.60;70.70;;;;;;9173291;19;20018;-62
2023/03/16 12:31:09;;;;;;;3.95;2.35;;;9.80;70.70;;;;;;9178947;19;20011;-62
2023/03/16 12:34:23;;;;;;;5.03;2.55;;;9.80;70.50;;;;;;9179002;19;20022;-62
2023/03/16 12:37:37;;;;;;;4.72;2.47;;;9.90;70.40;;;;;;9178736;19;20022;-62
2023/03/16 12:40:48;;;;;;;4.13;2.28;;;10.00;70.30;;;;;;9178987;19;20014;-62
2023/03/16 12:44:04;;;;;;;5.22;2.45;;;10.10;70.30;;;;;;9178596;19;20010;-62
2023/03/16 12:47:18;;;;;;;6.63;2.78;;;10.20;70.20;;;;;;9176522;19;20022;-62
2023/03/16 12:50:24;;;;;;;4.20;2.22;;;10.20;70.20;;;;;;9178207;19;20367;-62
2023/03/16 12:53:43;;;;;;;4.10;2.30;;;10.30;70.20;;;;;;9178081;19;20634;-62
2023/03/16 12:56:52;;;;;;;4.90;3.13;;;10.30;70.00;;;;;;9177928;19;20025;-62
2023/03/16 12:59:59;;;;;;;6.80;2.63;;;10.30;70.00;;;;;;9172305;19;20024;-62
2023/03/16 13:03:14;;;;;;;5.10;2.95;;;10.40;70.00;;;;;;9177950;19;20448;-62
2023/03/16 13:06:21;;;;;;;10.52;2.20;;;10.40;69.90;;;;;;9177545;19;20380;-62
2023/03/16 13:09:30;;;;;;;7.80;2.65;;;10.40;69.80;;;;;;9173868;19;20022;-62
2023/03/16 13:12:40;;;;;;;5.05;2.70;;;10.40;69.80;;;;;;9177659;19;20032;-62
2023/03/16 13:15:46;;;;;;;5.18;3.33;;;10.50;69.70;;;;;;9177175;19;20024;-62
2023/03/16 13:18:54;;;;;;;7.70;2.80;;;10.40;69.60;;;;;;9177828;19;20015;-62
2023/03/16 13:22:21;;;;;;;5.13;2.20;;;10.50;69.60;;;;;;9176939;19;20557;-62
2023/03/16 13:25:42;;;;;;;7.15;2.42;;;10.50;69.50;;;;;;9174162;19;20014;-62
2023/03/16 13:28:52;;;;;;;3.75;2.20;;;10.50;69.50;;;;;;9174413;19;20018;-61
2023/03/16 13:32:01;;;;;;;4.30;2.03;;;10.60;69.60;;;;;;9175447;19;20019;-62
2023/03/16 13:35:13;;;;;;;7.32;2.30;;;10.60;69.50;;;;;;9177690;19;20014;-61
2023/03/16 13:38:21;;;;;;;5.72;2.80;;;10.70;69.60;;;;;;9176471;19;20024;-61
2023/03/16 13:41:25;;;;;;;4.25;2.65;;;10.70;69.50;;;;;;9184075;19;20022;-62
2023/03/16 13:44:32;;;;;;;4.78;2.97;;;10.80;69.40;;;;;;9184473;19;20018;-62
2023/03/16 13:47:36;;;;;;;3.92;2.40;;;10.90;69.40;;;;;;9183109;19;20491;-62
2023/03/16 13:50:44;;;;;;;6.53;2.97;;;11.00;69.30;;;;;;9184102;19;20015;-62
2023/03/16 13:53:49;;;;;;;4.65;2.60;;;11.00;69.10;;;;;;9182520;19;20015;-62
2023/03/16 13:56:59;;;;;;;5.35;2.60;;;11.10;69.10;;;;;;9184302;19;20017;-61
2023/03/16 14:00:17;;;;;;;3.60;2.28;;;11.20;69.00;;;;;;9171248;19;20078;-62
2023/03/16 14:03:23;;;;;;;4.10;2.00;;;11.20;68.90;;;;;;9176665;19;20011;-62
2023/03/16 14:06:34;;;;;;;4.55;2.13;;;11.30;68.90;;;;;;9175818;19;20549;-62
2023/03/16 14:09:40;;;;;;;10.55;2.67;;;11.30;68.70;;;;;;9174997;19;20018;-62
2023/03/16 14:12:51;;;;;;;;;;;11.30;68.60;;;;;;9175488;19;20066;-63
2023/03/16 14:16:03;;;;;;;6.13;2.13;;;11.40;68.60;;;;;;9176181;19;19922;-63
2023/03/16 14:19:15;;;;;;;7.57;2.50;;;11.40;68.70;;;;;;9174342;19;20018;-63
2023/03/16 14:22:26;;;;;;;3.45;2.08;;;11.50;68.60;;;;;;9173397;19;20010;-63
2023/03/16 14:25:31;;;;;;;4.05;2.45;;;11.50;68.50;;;;;;9174984;19;20110;-63
2023/03/16 14:28:37;;;;;;;5.43;2.72;;;11.60;68.50;;;;;;9173629;19;20018;-63
2023/03/16 14:31:41;;;;;;;;;;;11.60;68.40;;;;;;9176627;19;20018;-63
2023/03/16 14:34:50;;;;;;;6.13;2.42;;;11.70;68.30;;;;;;9176560;19;20632;-63
2023/03/16 14:37:57;;;;;;;4.20;1.70;;;11.70;68.30;;;;;;9175387;19;20025;-63
2023/03/16 14:41:06;;;;;;;5.95;2.15;;;11.80;68.20;;;;;;9175409;19;20014;-63
2023/03/16 14:44:21;;;;;;;8.93;2.30;;;11.90;68.20;;;;;;9175750;19;20678;-63
2023/03/16 14:47:30;;;;;;;4.63;1.90;;;11.90;67.90;;;;;;9174437;19;20017;-63
2023/03/16 14:50:36;;;;;;;4.47;2.13;;;12.00;68.00;;;;;;9172638;19;20037;-64
2023/03/16 14:53:43;;;;;;;2.88;1.70;;;12.00;67.90;;;;;;9174692;19;20096;-63
2023/03/16 14:56:50;;;;;;;7.07;2.20;;;12.10;67.80;;;;;;9173526;19;20049;-64
2023/03/16 14:59:56;;;;;;;4.30;1.83;;;12.20;67.60;;;;;;9167653;19;20018;-63
2023/03/16 15:03:05;;;;;;;3.60;1.80;;;12.30;67.50;;;;;;9173175;19;20019;-64
2023/03/16 15:06:11;;;;;;;7.63;1.98;;;12.30;67.40;;;;;;9175340;19;20018;-63
2023/03/16 15:09:33;;;;;;;6.55;2.42;;;12.30;67.30;;;;;;9171204;19;20018;-63
2023/03/16 15:12:40;;;;;;;3.13;1.90;;;12.40;67.00;;;;;;9172675;19;20006;-64
2023/03/16 15:15:47;;;;;;;2.63;1.85;;;12.40;67.10;;;;;;9168509;19;20022;-63
2023/03/16 15:18:53;;;;;;;4.30;1.70;;;12.50;67.10;;;;;;9164440;19;20022;-63
2023/03/16 15:21:57;;;;;;;2.03;1.30;;;12.50;67.00;;;;;;9166946;19;20037;-63
2023/03/16 15:25:20;;;;;;;6.50;1.85;;;12.50;66.90;;;;;;9167578;19;20010;-63
2023/03/16 15:28:25;;;;;;;10.23;1.90;;;12.50;66.60;;;;;;9171696;19;20015;-63
2023/03/16 15:31:31;;;;;;;8.70;2.13;;;12.60;66.80;;;;;;9172989;19;20010;-63
2023/03/16 15:34:34;;;;;;;;;;;12.60;66.70;;;;;;9173430;19;20015;-63
2023/03/16 15:37:41;;;;;;;5.72;2.10;;;12.60;66.70;;;;;;9171307;19;19925;-63
2023/03/16 15:40:49;;;;;;;3.65;1.77;;;12.60;66.80;;;;;;9173439;19;20055;-64
2023/03/16 15:43:59;;;;;;;3.20;1.70;;;12.60;66.50;;;;;;9172024;19;20366;-63
2023/03/16 15:47:04;;;;;;;6.70;2.13;;;12.60;66.50;;;;;;9171771;19;20018;-63
2023/03/16 15:50:12;;;;;;;3.92;2.03;;;12.70;66.60;;;;;;9170076;19;20026;-63
2023/03/16 15:53:23;;;;;;;3.65;1.73;;;12.60;66.30;;;;;;9171947;19;20766;-63
2023/03/16 15:56:40;;;;;;;6.72;2.13;;;12.60;66.20;;;;;;9171369;19;20014;-63
2023/03/16 15:59:57;;;;;;;4.88;2.25;;;12.70;66.30;;;;;;9167377;19;20021;-63
2023/03/16 16:03:06;;;;;;;9.02;2.20;;;12.70;66.20;;;;;;9171404;19;20022;-63
2023/03/16 16:06:13;;;;;;;3.83;1.63;;;12.70;66.20;;;;;;9170639;19;20022;-63
2023/03/16 16:09:19;;;;;;;5.72;1.90;;;12.70;66.10;;;;;;9169252;19;20006;-63
2023/03/16 16:12:26;;;;;;;4.05;2.35;;;12.70;66.00;;;;;;9171200;19;20074;-63
2023/03/16 16:15:37;;;;;;;4.88;2.10;;;12.70;66.50;;;;;;9167618;19;20014;-63
2023/03/16 16:18:41;;;;;;;6.60;2.42;;;12.70;65.90;;;;;;9170947;19;20022;-63
2023/03/16 16:21:47;;;;;;;2.85;1.83;;;12.70;65.80;;;;;;9170114;19;20010;-63
2023/03/16 16:24:51;;;;;;;3.30;1.80;;;12.60;65.70;;;;;;9170730;19;20023;-63
2023/03/16 16:27:59;;;;;;;7.00;1.80;;;12.60;65.60;;;;;;9170106;19;20021;-63
2023/03/16 16:31:03;;;;;;;3.42;1.67;;;12.60;65.50;;;;;;9172185;19;20693;-63
2023/03/16 16:34:14;;;;;;;4.85;1.85;;;12.60;65.50;;;;;;9169091;19;20014;-63
2023/03/16 16:37:18;;;;;;;4.28;1.65;;;12.50;65.40;;;;;;9167143;19;20015;-63